sensor_id;sensor_type;location;lat;lon;timestamp;pressure;altitude;pressure_sealevel;temperature
27715;BMP280;16051;53.024;8.630;2023-04-07T00:01:23;101571.78;;;7.77
27715;BMP280;16051;53.024;8.630;2023-04-07T00:05:28;101564.81;;;7.88
27715;BMP280;16051;53.024;8.630;2023-04-07T00:09:31;101575.41;;;7.74
27715;BMP280;16051;53.024;8.630;2023-04-07T00:13:33;101573.50;;;7.71
27715;BMP280;16051;53.024;8.630;2023-04-07T00:17:35;101569.06;;;7.45
27715;BMP280;16051;53.024;8.630;2023-04-07T00:21:38;101570.50;;;7.49
27715;BMP280;16051;53.024;8.630;2023-04-07T00:25:40;101570.41;;;7.36
27715;BMP280;16051;53.024;8.630;2023-04-07T00:29:42;101572.16;;;7.30
27715;BMP280;16051;53.024;8.630;2023-04-07T00:34:41;101568.50;;;7.17
27715;BMP280;16051;53.024;8.630;2023-04-07T00:38:44;101567.38;;;7.15
27715;BMP280;16051;53.024;8.630;2023-04-07T00:42:46;101568.75;;;7.07
27715;BMP280;16051;53.024;8.630;2023-04-07T00:47:18;101574.88;;;6.94
27715;BMP280;16051;53.024;8.630;2023-04-07T00:51:21;101560.47;;;6.90
27715;BMP280;16051;53.024;8.630;2023-04-07T00:55:24;101569.28;;;6.82
27715;BMP280;16051;53.024;8.630;2023-04-07T00:59:27;101565.59;;;6.53
27715;BMP280;16051;53.024;8.630;2023-04-07T01:03:41;101561.22;;;6.55
27715;BMP280;16051;53.024;8.630;2023-04-07T01:07:57;101557.00;;;6.51
27715;BMP280;16051;53.024;8.630;2023-04-07T01:12:11;101556.06;;;6.37
27715;BMP280;16051;53.024;8.630;2023-04-07T01:16:23;101558.97;;;6.30
27715;BMP280;16051;53.024;8.630;2023-04-07T01:20:33;101562.41;;;6.34
27715;BMP280;16051;53.024;8.630;2023-04-07T01:25:05;101555.56;;;6.23
27715;BMP280;16051;53.024;8.630;2023-04-07T01:29:33;101561.44;;;6.25
27715;BMP280;16051;53.024;8.630;2023-04-07T01:33:44;101570.50;;;6.22
27715;BMP280;16051;53.024;8.630;2023-04-07T01:38:06;101565.16;;;6.15
27715;BMP280;16051;53.024;8.630;2023-04-07T01:42:09;101564.38;;;6.14
27715;BMP280;16051;53.024;8.630;2023-04-07T01:46:13;101565.63;;;6.10
27715;BMP280;16051;53.024;8.630;2023-04-07T01:50:16;101566.88;;;6.05
27715;BMP280;16051;53.024;8.630;2023-04-07T01:54:28;101568.06;;;6.04
27715;BMP280;16051;53.024;8.630;2023-04-07T01:58:30;101563.22;;;6.12
27715;BMP280;16051;53.024;8.630;2023-04-07T02:02:40;101566.09;;;6.05
27715;BMP280;16051;53.024;8.630;2023-04-07T02:06:47;101568.91;;;6.01
27715;BMP280;16051;53.024;8.630;2023-04-07T02:10:54;101556.69;;;5.86
27715;BMP280;16051;53.024;8.630;2023-04-07T02:14:58;101570.50;;;5.75
27715;BMP280;16051;53.024;8.630;2023-04-07T02:19:03;101571.41;;;5.69
27715;BMP280;16051;53.024;8.630;2023-04-07T02:23:35;101561.41;;;5.59
27715;BMP280;16051;53.024;8.630;2023-04-07T02:27:38;101560.56;;;5.62
27715;BMP280;16051;53.024;8.630;2023-04-07T02:31:42;101556.16;;;5.44
27715;BMP280;16051;53.024;8.630;2023-04-07T02:35:45;101558.63;;;5.35
27715;BMP280;16051;53.024;8.630;2023-04-07T02:39:47;101566.59;;;5.26
27715;BMP280;16051;53.024;8.630;2023-04-07T02:43:49;101572.88;;;5.27
27715;BMP280;16051;53.024;8.630;2023-04-07T02:47:51;101560.41;;;5.22
27715;BMP280;16051;53.024;8.630;2023-04-07T02:51:55;101562.13;;;5.13
27715;BMP280;16051;53.024;8.630;2023-04-07T02:55:58;101576.06;;;5.22
27715;BMP280;16051;53.024;8.630;2023-04-07T03:00:00;101568.69;;;5.19
27715;BMP280;16051;53.024;8.630;2023-04-07T03:04:02;101567.13;;;5.18
27715;BMP280;16051;53.024;8.630;2023-04-07T03:08:06;101577.00;;;5.12
27715;BMP280;16051;53.024;8.630;2023-04-07T03:12:08;101563.34;;;5.08
27715;BMP280;16051;53.024;8.630;2023-04-07T03:16:11;101569.34;;;5.00
27715;BMP280;16051;53.024;8.630;2023-04-07T03:20:13;101567.03;;;4.98
27715;BMP280;16051;53.024;8.630;2023-04-07T03:24:16;101573.88;;;4.83
27715;BMP280;16051;53.024;8.630;2023-04-07T03:28:19;101574.38;;;4.74
27715;BMP280;16051;53.024;8.630;2023-04-07T03:32:21;101569.22;;;4.80
27715;BMP280;16051;53.024;8.630;2023-04-07T03:36:23;101571.63;;;4.74
27715;BMP280;16051;53.024;8.630;2023-04-07T03:40:28;101574.44;;;4.67
27715;BMP280;16051;53.024;8.630;2023-04-07T03:44:30;101580.09;;;4.53
27715;BMP280;16051;53.024;8.630;2023-04-07T03:48:32;101580.84;;;4.57
27715;BMP280;16051;53.024;8.630;2023-04-07T03:52:34;101580.22;;;4.42
27715;BMP280;16051;53.024;8.630;2023-04-07T03:56:38;101580.63;;;4.44
27715;BMP280;16051;53.024;8.630;2023-04-07T04:00:41;101590.34;;;4.45
27715;BMP280;16051;53.024;8.630;2023-04-07T04:04:43;101588.13;;;4.37
27715;BMP280;16051;53.024;8.630;2023-04-07T04:08:53;101587.38;;;4.33
27715;BMP280;16051;53.024;8.630;2023-04-07T04:12:57;101602.41;;;4.14
27715;BMP280;16051;53.024;8.630;2023-04-07T04:17:00;101602.69;;;4.23
27715;BMP280;16051;53.024;8.630;2023-04-07T04:21:07;101590.63;;;4.21
27715;BMP280;16051;53.024;8.630;2023-04-07T04:25:09;101597.84;;;4.04
27715;BMP280;16051;53.024;8.630;2023-04-07T04:29:13;101601.00;;;3.99
27715;BMP280;16051;53.024;8.630;2023-04-07T04:33:41;101597.84;;;4.04
27715;BMP280;16051;53.024;8.630;2023-04-07T04:37:43;101621.00;;;3.89
27715;BMP280;16051;53.024;8.630;2023-04-07T04:41:45;101611.28;;;3.84
27715;BMP280;16051;53.024;8.630;2023-04-07T04:45:56;101614.00;;;3.84
27715;BMP280;16051;53.024;8.630;2023-04-07T04:49:58;101625.44;;;3.72
27715;BMP280;16051;53.024;8.630;2023-04-07T04:54:00;101625.81;;;3.74
27715;BMP280;16051;53.024;8.630;2023-04-07T04:58:03;101627.41;;;3.72
27715;BMP280;16051;53.024;8.630;2023-04-07T05:02:07;101632.50;;;3.66
27715;BMP280;16051;53.024;8.630;2023-04-07T05:06:09;101636.75;;;3.74
27715;BMP280;16051;53.024;8.630;2023-04-07T05:10:21;101651.16;;;3.78
27715;BMP280;16051;53.024;8.630;2023-04-07T05:14:42;101653.94;;;3.71
27715;BMP280;16051;53.024;8.630;2023-04-07T05:18:52;101660.44;;;3.88
27715;BMP280;16051;53.024;8.630;2023-04-07T05:22:57;101656.56;;;3.85
27715;BMP280;16051;53.024;8.630;2023-04-07T05:26:59;101659.72;;;3.80
27715;BMP280;16051;53.024;8.630;2023-04-07T05:31:01;101665.19;;;3.80
27715;BMP280;16051;53.024;8.630;2023-04-07T05:35:39;101670.66;;;3.80
27715;BMP280;16051;53.024;8.630;2023-04-07T05:39:41;101669.09;;;3.83
27715;BMP280;16051;53.024;8.630;2023-04-07T05:43:43;101666.66;;;3.92
27715;BMP280;16051;53.024;8.630;2023-04-07T05:47:45;101678.00;;;3.90
27715;BMP280;16051;53.024;8.630;2023-04-07T05:51:51;101673.69;;;3.93
27715;BMP280;16051;53.024;8.630;2023-04-07T05:55:57;101672.53;;;3.94
27715;BMP280;16051;53.024;8.630;2023-04-07T05:59:59;101679.13;;;3.96
27715;BMP280;16051;53.024;8.630;2023-04-07T06:04:01;101686.81;;;4.12
27715;BMP280;16051;53.024;8.630;2023-04-07T06:08:15;101699.28;;;4.13
27715;BMP280;16051;53.024;8.630;2023-04-07T06:12:17;101694.88;;;4.30
27715;BMP280;16051;53.024;8.630;2023-04-07T06:16:30;101704.22;;;4.32
27715;BMP280;16051;53.024;8.630;2023-04-07T06:20:42;101716.50;;;4.58
27715;BMP280;16051;53.024;8.630;2023-04-07T06:24:47;101711.59;;;4.76
27715;BMP280;16051;53.024;8.630;2023-04-07T06:28:49;101715.41;;;4.86
27715;BMP280;16051;53.024;8.630;2023-04-07T06:32:51;101721.16;;;4.99
27715;BMP280;16051;53.024;8.630;2023-04-07T06:36:53;101722.75;;;5.26
27715;BMP280;16051;53.024;8.630;2023-04-07T06:40:57;101730.78;;;5.40
27715;BMP280;16051;53.024;8.630;2023-04-07T06:44:59;101739.50;;;5.62
27715;BMP280;16051;53.024;8.630;2023-04-07T06:49:01;101744.06;;;5.72
27715;BMP280;16051;53.024;8.630;2023-04-07T06:53:06;101748.72;;;5.75
27715;BMP280;16051;53.024;8.630;2023-04-07T06:57:09;101741.09;;;5.90
27715;BMP280;16051;53.024;8.630;2023-04-07T07:01:12;101740.72;;;6.15
27715;BMP280;16051;53.024;8.630;2023-04-07T07:05:15;101747.34;;;6.40
27715;BMP280;16051;53.024;8.630;2023-04-07T07:09:17;101759.50;;;6.63
27715;BMP280;16051;53.024;8.630;2023-04-07T07:13:24;101756.03;;;6.82
27715;BMP280;16051;53.024;8.630;2023-04-07T07:17:27;101756.06;;;7.02
27715;BMP280;16051;53.024;8.630;2023-04-07T07:21:35;101768.38;;;7.33
27715;BMP280;16051;53.024;8.630;2023-04-07T07:25:37;101771.00;;;7.40
27715;BMP280;16051;53.024;8.630;2023-04-07T07:29:41;101770.69;;;7.54
27715;BMP280;16051;53.024;8.630;2023-04-07T07:33:52;101782.25;;;7.81
27715;BMP280;16051;53.024;8.630;2023-04-07T07:37:54;101786.44;;;8.06
27715;BMP280;16051;53.024;8.630;2023-04-07T07:42:27;101785.13;;;8.46
27715;BMP280;16051;53.024;8.630;2023-04-07T07:46:30;101786.91;;;8.69
27715;BMP280;16051;53.024;8.630;2023-04-07T07:50:32;101786.53;;;8.83
27715;BMP280;16051;53.024;8.630;2023-04-07T07:54:34;101793.69;;;9.09
27715;BMP280;16051;53.024;8.630;2023-04-07T07:58:37;101797.63;;;8.96
27715;BMP280;16051;53.024;8.630;2023-04-07T08:02:40;101793.88;;;9.18
27715;BMP280;16051;53.024;8.630;2023-04-07T08:06:42;101793.47;;;9.32
27715;BMP280;16051;53.024;8.630;2023-04-07T08:10:44;101805.16;;;9.36
27715;BMP280;16051;53.024;8.630;2023-04-07T08:14:47;101811.59;;;9.59
27715;BMP280;16051;53.024;8.630;2023-04-07T08:18:51;101812.25;;;9.50
27715;BMP280;16051;53.024;8.630;2023-04-07T08:23:01;101811.59;;;9.59
27715;BMP280;16051;53.024;8.630;2023-04-07T08:27:03;101822.53;;;9.62
27715;BMP280;16051;53.024;8.630;2023-04-07T08:31:37;101826.53;;;9.61
27715;BMP280;16051;53.024;8.630;2023-04-07T08:35:41;101815.94;;;9.85
27715;BMP280;16051;53.024;8.630;2023-04-07T08:39:43;101816.72;;;9.85
27715;BMP280;16051;53.024;8.630;2023-04-07T08:43:47;101819.72;;;9.91
27715;BMP280;16051;53.024;8.630;2023-04-07T08:47:54;101822.16;;;9.89
27715;BMP280;16051;53.024;8.630;2023-04-07T08:51:59;101833.09;;;10.05
27715;BMP280;16051;53.024;8.630;2023-04-07T08:56:05;101834.09;;;10.24
27715;BMP280;16051;53.024;8.630;2023-04-07T09:00:10;101829.56;;;10.43
27715;BMP280;16051;53.024;8.630;2023-04-07T09:04:13;101829.22;;;10.66
27715;BMP280;16051;53.024;8.630;2023-04-07T09:08:16;101826.38;;;10.91
27715;BMP280;16051;53.024;8.630;2023-04-07T09:12:19;101827.88;;;11.05
27715;BMP280;16051;53.024;8.630;2023-04-07T09:16:21;101826.34;;;11.25
27715;BMP280;16051;53.024;8.630;2023-04-07T09:20:24;101833.69;;;11.41
27715;BMP280;16051;53.024;8.630;2023-04-07T09:24:29;101829.22;;;11.34
27715;BMP280;16051;53.024;8.630;2023-04-07T09:28:42;101844.91;;;11.38
27715;BMP280;16051;53.024;8.630;2023-04-07T09:32:45;101838.47;;;11.41
27715;BMP280;16051;53.024;8.630;2023-04-07T09:36:47;101830.25;;;11.50
27715;BMP280;16051;53.024;8.630;2023-04-07T09:41:04;101818.50;;;11.67
27715;BMP280;16051;53.024;8.630;2023-04-07T09:45:08;101830.78;;;11.88
27715;BMP280;16051;53.024;8.630;2023-04-07T09:49:24;101825.75;;;11.96
27715;BMP280;16051;53.024;8.630;2023-04-07T09:53:45;101825.31;;;11.97
27715;BMP280;16051;53.024;8.630;2023-04-07T09:57:56;101821.56;;;12.22
27715;BMP280;16051;53.024;8.630;2023-04-07T10:01:59;101829.50;;;12.60
27715;BMP280;16051;53.024;8.630;2023-04-07T10:06:02;101819.22;;;12.78
27715;BMP280;16051;53.024;8.630;2023-04-07T10:10:07;101830.63;;;12.62
27715;BMP280;16051;53.024;8.630;2023-04-07T10:14:11;101825.88;;;12.90
27715;BMP280;16051;53.024;8.630;2023-04-07T10:18:15;101813.44;;;13.13
27715;BMP280;16051;53.024;8.630;2023-04-07T10:22:18;101830.03;;;12.95
27715;BMP280;16051;53.024;8.630;2023-04-07T10:26:25;101836.22;;;13.26
27715;BMP280;16051;53.024;8.630;2023-04-07T10:30:33;101831.28;;;13.39
27715;BMP280;16051;53.024;8.630;2023-04-07T10:34:59;101834.22;;;14.05
27715;BMP280;16051;53.024;8.630;2023-04-07T10:39:20;101845.41;;;14.28
27715;BMP280;16051;53.024;8.630;2023-04-07T10:43:54;101838.34;;;14.99
27715;BMP280;16051;53.024;8.630;2023-04-07T10:48:11;101840.38;;;15.37
27715;BMP280;16051;53.024;8.630;2023-04-07T10:52:23;101832.97;;;14.95
27715;BMP280;16051;53.024;8.630;2023-04-07T11:01:18;101832.28;;;15.39
27715;BMP280;16051;53.024;8.630;2023-04-07T11:05:25;101837.47;;;15.31
27715;BMP280;16051;53.024;8.630;2023-04-07T11:09:27;101847.63;;;15.34
27715;BMP280;16051;53.024;8.630;2023-04-07T11:13:39;101848.22;;;15.38
27715;BMP280;16051;53.024;8.630;2023-04-07T11:17:42;101845.78;;;15.99
27715;BMP280;16051;53.024;8.630;2023-04-07T11:21:45;101853.06;;;15.96
27715;BMP280;16051;53.024;8.630;2023-04-07T11:25:51;101848.63;;;16.19
27715;BMP280;16051;53.024;8.630;2023-04-07T11:29:54;101845.16;;;16.24
27715;BMP280;16051;53.024;8.630;2023-04-07T11:33:59;101855.31;;;16.42
27715;BMP280;16051;53.024;8.630;2023-04-07T11:38:03;101849.03;;;16.47
27715;BMP280;16051;53.024;8.630;2023-04-07T11:42:05;101838.63;;;16.62
27715;BMP280;16051;53.024;8.630;2023-04-07T11:46:12;101841.22;;;16.86
27715;BMP280;16051;53.024;8.630;2023-04-07T11:50:14;101846.03;;;16.85
27715;BMP280;16051;53.024;8.630;2023-04-07T11:54:40;101851.97;;;16.72
27715;BMP280;16051;53.024;8.630;2023-04-07T11:58:47;101846.72;;;17.00
27715;BMP280;16051;53.024;8.630;2023-04-07T12:03:08;101834.00;;;17.19
27715;BMP280;16051;53.024;8.630;2023-04-07T12:07:11;101840.19;;;17.29
27715;BMP280;16051;53.024;8.630;2023-04-07T12:11:14;101840.66;;;17.02
27715;BMP280;16051;53.024;8.630;2023-04-07T12:15:17;101848.91;;;17.11
27715;BMP280;16051;53.024;8.630;2023-04-07T12:19:20;101842.63;;;16.96
27715;BMP280;16051;53.024;8.630;2023-04-07T12:23:35;101839.13;;;17.01
27715;BMP280;16051;53.024;8.630;2023-04-07T12:27:39;101846.34;;;17.33
27715;BMP280;16051;53.024;8.630;2023-04-07T12:31:41;101841.25;;;17.32
27715;BMP280;16051;53.024;8.630;2023-04-07T12:35:59;101842.97;;;17.49
27715;BMP280;16051;53.024;8.630;2023-04-07T12:40:01;101843.31;;;17.57
27715;BMP280;16051;53.024;8.630;2023-04-07T12:44:05;101855.47;;;17.54
27715;BMP280;16051;53.024;8.630;2023-04-07T12:48:07;101848.16;;;17.36
27715;BMP280;16051;53.024;8.630;2023-04-07T12:52:11;101850.91;;;17.10
27715;BMP280;16051;53.024;8.630;2023-04-07T12:56:13;101860.75;;;17.06
27715;BMP280;16051;53.024;8.630;2023-04-07T13:00:17;101859.28;;;16.90
27715;BMP280;16051;53.024;8.630;2023-04-07T13:04:19;101860.38;;;17.18
27715;BMP280;16051;53.024;8.630;2023-04-07T13:08:22;101848.56;;;17.29
27715;BMP280;16051;53.024;8.630;2023-04-07T13:12:24;101859.56;;;17.58
27715;BMP280;16051;53.024;8.630;2023-04-07T13:16:28;101859.00;;;17.29
27715;BMP280;16051;53.024;8.630;2023-04-07T13:20:31;101855.09;;;17.00
27715;BMP280;16051;53.024;8.630;2023-04-07T13:24:36;101862.28;;;17.53
27715;BMP280;16051;53.024;8.630;2023-04-07T13:28:38;101851.81;;;17.99
27715;BMP280;16051;53.024;8.630;2023-04-07T13:32:42;101855.66;;;17.76
27715;BMP280;16051;53.024;8.630;2023-04-07T13:36:54;101849.03;;;17.99
27715;BMP280;16051;53.024;8.630;2023-04-07T13:40:56;101859.22;;;17.51
27715;BMP280;16051;53.024;8.630;2023-04-07T13:45:32;101861.75;;;17.49
27715;BMP280;16051;53.024;8.630;2023-04-07T13:49:54;101849.59;;;17.78
27715;BMP280;16051;53.024;8.630;2023-04-07T13:53:56;101847.72;;;17.69
27715;BMP280;16051;53.024;8.630;2023-04-07T13:58:09;101849.72;;;17.63
27715;BMP280;16051;53.024;8.630;2023-04-07T14:02:11;101849.56;;;17.52
27715;BMP280;16051;53.024;8.630;2023-04-07T14:06:14;101845.03;;;17.29
27715;BMP280;16051;53.024;8.630;2023-04-07T14:10:17;101848.44;;;17.38
27715;BMP280;16051;53.024;8.630;2023-04-07T14:14:48;101841.31;;;17.37
27715;BMP280;16051;53.024;8.630;2023-04-07T14:18:52;101849.31;;;17.04
27715;BMP280;16051;53.024;8.630;2023-04-07T14:22:55;101842.34;;;17.14
27715;BMP280;16051;53.024;8.630;2023-04-07T14:27:23;101842.81;;;17.12
27715;BMP280;16051;53.024;8.630;2023-04-07T14:31:26;101854.22;;;17.35
27715;BMP280;16051;53.024;8.630;2023-04-07T14:35:31;101846.03;;;17.05
27715;BMP280;16051;53.024;8.630;2023-04-07T14:39:37;101853.44;;;16.88
27715;BMP280;16051;53.024;8.630;2023-04-07T14:43:39;101847.22;;;16.79
27715;BMP280;16051;53.024;8.630;2023-04-07T14:47:42;101845.34;;;16.70
27715;BMP280;16051;53.024;8.630;2023-04-07T14:52:03;101855.38;;;16.62
27715;BMP280;16051;53.024;8.630;2023-04-07T14:56:07;101858.03;;;16.71
27715;BMP280;16051;53.024;8.630;2023-04-07T15:00:16;101864.72;;;16.59
27715;BMP280;16051;53.024;8.630;2023-04-07T15:04:18;101858.69;;;16.46
27715;BMP280;16051;53.024;8.630;2023-04-07T15:08:35;101852.31;;;16.60
27715;BMP280;16051;53.024;8.630;2023-04-07T15:12:38;101862.59;;;16.39
27715;BMP280;16051;53.024;8.630;2023-04-07T15:16:40;101858.94;;;16.48
27715;BMP280;16051;53.024;8.630;2023-04-07T15:20:48;101867.28;;;16.28
27715;BMP280;16051;53.024;8.630;2023-04-07T15:24:54;101856.22;;;16.53
27715;BMP280;16051;53.024;8.630;2023-04-07T15:28:58;101874.84;;;16.42
27715;BMP280;16051;53.024;8.630;2023-04-07T15:33:02;101867.00;;;15.96
27715;BMP280;16051;53.024;8.630;2023-04-07T15:37:20;101875.16;;;15.85
27715;BMP280;16051;53.024;8.630;2023-04-07T15:41:22;101877.69;;;15.83
27715;BMP280;16051;53.024;8.630;2023-04-07T15:45:26;101884.84;;;15.60
27715;BMP280;16051;53.024;8.630;2023-04-07T15:49:28;101885.06;;;15.71
27715;BMP280;16051;53.024;8.630;2023-04-07T15:53:30;101892.25;;;15.63
27715;BMP280;16051;53.024;8.630;2023-04-07T15:57:33;101893.41;;;15.57
27715;BMP280;16051;53.024;8.630;2023-04-07T16:01:37;101893.31;;;15.51
27715;BMP280;16051;53.024;8.630;2023-04-07T16:05:39;101899.34;;;15.50
27715;BMP280;16051;53.024;8.630;2023-04-07T16:09:41;101904.06;;;15.35
27715;BMP280;16051;53.024;8.630;2023-04-07T16:13:43;101915.03;;;15.38
27715;BMP280;16051;53.024;8.630;2023-04-07T16:17:47;101907.22;;;15.27
27715;BMP280;16051;53.024;8.630;2023-04-07T16:21:50;101904.44;;;15.27
27715;BMP280;16051;53.024;8.630;2023-04-07T16:25:52;101905.75;;;15.17
27715;BMP280;16051;53.024;8.630;2023-04-07T16:29:55;101918.31;;;15.37
27715;BMP280;16051;53.024;8.630;2023-04-07T16:34:18;101918.72;;;15.20
27715;BMP280;16051;53.024;8.630;2023-04-07T16:38:20;101917.78;;;15.00
27715;BMP280;16051;53.024;8.630;2023-04-07T16:42:24;101919.91;;;15.05
27715;BMP280;16051;53.024;8.630;2023-04-07T16:46:45;101920.16;;;14.92
27715;BMP280;16051;53.024;8.630;2023-04-07T16:50:56;101927.72;;;14.92
27715;BMP280;16051;53.024;8.630;2023-04-07T16:55:24;101932.66;;;14.97
27715;BMP280;16051;53.024;8.630;2023-04-07T16:59:26;101938.25;;;14.88
27715;BMP280;16051;53.024;8.630;2023-04-07T17:03:28;101935.81;;;14.48
27715;BMP280;16051;53.024;8.630;2023-04-07T17:07:55;101948.97;;;14.29
27715;BMP280;16051;53.024;8.630;2023-04-07T17:12:09;101948.09;;;14.05
27715;BMP280;16051;53.024;8.630;2023-04-07T17:16:15;101967.59;;;13.96
27715;BMP280;16051;53.024;8.630;2023-04-07T17:20:22;101964.50;;;13.85
27715;BMP280;16051;53.024;8.630;2023-04-07T17:24:25;101980.22;;;13.78
27715;BMP280;16051;53.024;8.630;2023-04-07T17:28:27;101971.16;;;13.60
27715;BMP280;16051;53.024;8.630;2023-04-07T17:32:29;101987.31;;;13.34
27715;BMP280;16051;53.024;8.630;2023-04-07T17:36:55;101988.50;;;13.15
27715;BMP280;16051;53.024;8.630;2023-04-07T17:40:59;101997.03;;;12.99
27715;BMP280;16051;53.024;8.630;2023-04-07T17:45:03;102006.41;;;12.92
27715;BMP280;16051;53.024;8.630;2023-04-07T17:49:05;102008.81;;;12.72
27715;BMP280;16051;53.024;8.630;2023-04-07T17:53:08;102020.81;;;12.69
27715;BMP280;16051;53.024;8.630;2023-04-07T17:57:11;102024.00;;;12.58
27715;BMP280;16051;53.024;8.630;2023-04-07T18:01:18;102028.97;;;12.42
27715;BMP280;16051;53.024;8.630;2023-04-07T18:05:21;102037.09;;;12.36
27715;BMP280;16051;53.024;8.630;2023-04-07T18:09:40;102045.81;;;12.25
27715;BMP280;16051;53.024;8.630;2023-04-07T18:13:45;102053.13;;;12.19
27715;BMP280;16051;53.024;8.630;2023-04-07T18:17:48;102059.56;;;12.16
27715;BMP280;16051;53.024;8.630;2023-04-07T18:21:54;102062.72;;;12.06
27715;BMP280;16051;53.024;8.630;2023-04-07T18:25:57;102071.41;;;11.95
27715;BMP280;16051;53.024;8.630;2023-04-07T18:30:00;102074.22;;;11.70
27715;BMP280;16051;53.024;8.630;2023-04-07T18:34:02;102079.25;;;11.50
27715;BMP280;16051;53.024;8.630;2023-04-07T18:38:04;102084.22;;;11.29
27715;BMP280;16051;53.024;8.630;2023-04-07T18:42:07;102083.25;;;11.11
27715;BMP280;16051;53.024;8.630;2023-04-07T18:46:11;102093.19;;;11.08
27715;BMP280;16051;53.024;8.630;2023-04-07T18:50:15;102092.06;;;10.93
27715;BMP280;16051;53.024;8.630;2023-04-07T18:54:17;102106.31;;;10.66
27715;BMP280;16051;53.024;8.630;2023-04-07T18:58:20;102112.91;;;10.56
27715;BMP280;16051;53.024;8.630;2023-04-07T19:02:27;102117.00;;;10.52
27715;BMP280;16051;53.024;8.630;2023-04-07T19:06:29;102114.72;;;10.34
27715;BMP280;16051;53.024;8.630;2023-04-07T19:10:33;102125.41;;;10.32
27715;BMP280;16051;53.024;8.630;2023-04-07T19:14:37;102136.81;;;10.34
27715;BMP280;16051;53.024;8.630;2023-04-07T19:18:50;102139.50;;;10.21
27715;BMP280;16051;53.024;8.630;2023-04-07T19:23:13;102134.66;;;10.09
27715;BMP280;16051;53.024;8.630;2023-04-07T19:27:15;102143.47;;;10.04
27715;BMP280;16051;53.024;8.630;2023-04-07T19:31:18;102148.00;;;9.98
27715;BMP280;16051;53.024;8.630;2023-04-07T19:35:22;102153.50;;;9.82
27715;BMP280;16051;53.024;8.630;2023-04-07T19:39:24;102154.19;;;9.86
27715;BMP280;16051;53.024;8.630;2023-04-07T19:43:26;102165.59;;;9.72
27715;BMP280;16051;53.024;8.630;2023-04-07T19:47:29;102165.06;;;9.61
27715;BMP280;16051;53.024;8.630;2023-04-07T19:51:32;102173.06;;;9.55
27715;BMP280;16051;53.024;8.630;2023-04-07T19:55:35;102175.91;;;9.52
27715;BMP280;16051;53.024;8.630;2023-04-07T19:59:38;102182.28;;;9.49
27715;BMP280;16051;53.024;8.630;2023-04-07T20:03:41;102190.22;;;9.47
27715;BMP280;16051;53.024;8.630;2023-04-07T20:07:46;102192.59;;;9.45
27715;BMP280;16051;53.024;8.630;2023-04-07T20:11:48;102197.50;;;9.37
27715;BMP280;16051;53.024;8.630;2023-04-07T20:15:59;102204.88;;;9.24
27715;BMP280;16051;53.024;8.630;2023-04-07T20:20:02;102216.84;;;9.17
27715;BMP280;16051;53.024;8.630;2023-04-07T20:24:25;102214.38;;;9.03
27715;BMP280;16051;53.024;8.630;2023-04-07T20:28:27;102222.09;;;8.92
27715;BMP280;16051;53.024;8.630;2023-04-07T20:32:29;102224.59;;;8.83
27715;BMP280;16051;53.024;8.630;2023-04-07T20:36:33;102226.72;;;8.56
27715;BMP280;16051;53.024;8.630;2023-04-07T20:40:37;102228.53;;;8.43
27715;BMP280;16051;53.024;8.630;2023-04-07T20:44:39;102244.53;;;8.24
27715;BMP280;16051;53.024;8.630;2023-04-07T20:49:06;102244.84;;;8.30
27715;BMP280;16051;53.024;8.630;2023-04-07T20:53:08;102237.66;;;8.13
27715;BMP280;16051;53.024;8.630;2023-04-07T20:57:12;102241.03;;;7.97
27715;BMP280;16051;53.024;8.630;2023-04-07T21:01:17;102245.72;;;7.73
27715;BMP280;16051;53.024;8.630;2023-04-07T21:05:19;102248.53;;;7.70
27715;BMP280;16051;53.024;8.630;2023-04-07T21:09:21;102253.75;;;7.61
27715;BMP280;16051;53.024;8.630;2023-04-07T21:13:25;102251.44;;;7.59
27715;BMP280;16051;53.024;8.630;2023-04-07T21:17:29;102244.75;;;7.57
27715;BMP280;16051;53.024;8.630;2023-04-07T21:21:31;102260.53;;;7.53
27715;BMP280;16051;53.024;8.630;2023-04-07T21:25:35;102263.41;;;7.42
27715;BMP280;16051;53.024;8.630;2023-04-07T21:29:39;102267.44;;;7.37
27715;BMP280;16051;53.024;8.630;2023-04-07T21:33:42;102271.03;;;7.31
27715;BMP280;16051;53.024;8.630;2023-04-07T21:37:45;102267.81;;;7.36
27715;BMP280;16051;53.024;8.630;2023-04-07T21:41:51;102267.91;;;7.29
27715;BMP280;16051;53.024;8.630;2023-04-07T21:45:55;102271.59;;;7.19
27715;BMP280;16051;53.024;8.630;2023-04-07T21:50:11;102265.47;;;7.04
27715;BMP280;16051;53.024;8.630;2023-04-07T21:54:13;102274.47;;;7.08
27715;BMP280;16051;53.024;8.630;2023-04-07T21:58:15;102272.88;;;7.07
27715;BMP280;16051;53.024;8.630;2023-04-07T22:02:19;102265.78;;;7.10
27715;BMP280;16051;53.024;8.630;2023-04-07T22:06:21;102273.72;;;7.04
27715;BMP280;16051;53.024;8.630;2023-04-07T22:10:23;102272.59;;;6.98
27715;BMP280;16051;53.024;8.630;2023-04-07T22:14:26;102269.50;;;6.92
27715;BMP280;16051;53.024;8.630;2023-04-07T22:18:29;102277.75;;;6.92
27715;BMP280;16051;53.024;8.630;2023-04-07T22:22:32;102276.13;;;6.99
27715;BMP280;16051;53.024;8.630;2023-04-07T22:26:34;102280.00;;;7.05
27715;BMP280;16051;53.024;8.630;2023-04-07T22:30:59;102295.31;;;7.02
27715;BMP280;16051;53.024;8.630;2023-04-07T22:35:04;102290.94;;;7.08
27715;BMP280;16051;53.024;8.630;2023-04-07T22:39:06;102291.84;;;6.98
27715;BMP280;16051;53.024;8.630;2023-04-07T22:43:08;102294.03;;;7.10
27715;BMP280;16051;53.024;8.630;2023-04-07T22:47:12;102293.97;;;7.17
27715;BMP280;16051;53.024;8.630;2023-04-07T22:51:17;102301.81;;;7.19
27715;BMP280;16051;53.024;8.630;2023-04-07T22:55:19;102303.44;;;7.13
27715;BMP280;16051;53.024;8.630;2023-04-07T22:59:21;102304.59;;;7.15
27715;BMP280;16051;53.024;8.630;2023-04-07T23:03:24;102305.44;;;7.12
27715;BMP280;16051;53.024;8.630;2023-04-07T23:07:28;102314.38;;;7.16
27715;BMP280;16051;53.024;8.630;2023-04-07T23:11:30;102314.19;;;7.00
27715;BMP280;16051;53.024;8.630;2023-04-07T23:15:33;102300.09;;;6.98
27715;BMP280;16051;53.024;8.630;2023-04-07T23:19:36;102315.38;;;6.99
27715;BMP280;16051;53.024;8.630;2023-04-07T23:23:40;102316.94;;;7.00
27715;BMP280;16051;53.024;8.630;2023-04-07T23:27:43;102312.53;;;7.06
27715;BMP280;16051;53.024;8.630;2023-04-07T23:31:46;102309.44;;;7.04
27715;BMP280;16051;53.024;8.630;2023-04-07T23:35:58;102317.72;;;7.01